• Join FlightAware (Why Join?)
  • Login
  • US Flag 
08:27PM EDT


 

Airport Tracker/Info


-or-


 

Live Flight TrackerFlight Track Log ✈ N61736 ✈ 22-Sep-2012 ✈ KGLS - KIYA

Flight Track Log - Related Links

Times and Time Zones

All times are in EDT time to prevent confusion due to time zone crossing. See the N61736 flight status page for this flight to view local times or setup timezone preferences in your user account.

Time Position Orientation Groundspeed Altitude Reporting Facility
EDT Latitude Longitude Course Direction KTS MPH feet Rate Location/Type
11:22PM 29.6506 -94.0800 68° East 110 127 4,500  Level Houston Center
11:23PM 29.6614 -94.0492 69° East 104 120 4,500  Level Houston Center
11:24PM 29.6725 -94.0158 72° East 104 120 4,500  Level Houston Center
11:25PM 29.6814 -93.9850 66° East 104 120 4,500  Level Houston Center
11:26PM 29.6944 -93.9519 64° Northeast 104 120 4,500  Level Houston Center
11:27PM 29.7075 -93.9211 71° East 104 120 4,500  Level Houston Center
11:28PM 29.7186 -93.8831 73° East 109 125 4,500  Level Houston Center
11:29PM 29.7275 -93.8497 74° East 109 125 4,500  Level Houston Center
11:30PM 29.7364 -93.8142 74° East 109 125 4,500  Level Houston Center
11:31PM 29.7453 -93.7783 77° East 109 125 4,500  Level Houston Center
11:32PM 29.7519 -93.7450 85° East 104 120 4,600 -60 Climbing Houston Center
11:33PM 29.7547 -93.7069 82° East 109 125 4,400 -180 Descending Houston Center
11:34PM 29.7594 -93.6686 82° East 114 131 4,300 -120 Descending Houston Center
11:35PM 29.7642 -93.6306 86° East 114 131 4,200 -180 Descending Houston Center
11:36PM 29.7669 -93.5897 86° East 119 137 4,000 -120 Descending Houston Center
11:37PM 29.7694 -93.5517 85° East 119 137 4,000 -60 Level Houston Center
11:38PM 29.7722 -93.5133 86° East 119 137 3,900 -120 Descending Houston Center
11:39PM 29.7747 -93.4750 82° East 124 143 3,800 -120 Descending Houston Center
11:40PM 29.7794 -93.4369 79° East 119 137 3,700 -60 Descending Houston Center
11:41PM 29.7861 -93.3986 79° East 119 137 3,700 -60 Level Houston Center
11:42PM 29.7928 -93.3606 77° East 119 137 3,600 -60 Descending Houston Center
11:43PM 29.7997 -93.3247 86° East 119 137 3,600  Level Houston Center
11:44PM 29.8022 -93.2864 81° East 119 137 3,600  Level Houston Center
11:45PM 29.8067 -93.2531 75° East 119 137 3,600  Level Houston Center
11:46PM 29.8156 -93.2150 85° East 119 137 3,600 -60 Level Houston Center
11:47PM 29.8181 -93.1814 79° East 114 131 3,500 -120 Descending Houston Center
11:48PM 29.8247 -93.1431 83° East 114 131 3,400 -120 Descending Houston Center
11:49PM 29.8292 -93.1025 86° East 114 131 3,300 -180 Descending Houston Center
11:50PM 29.8317 -93.0642 82° East 119 137 3,100 -180 Descending Houston Center
11:51PM 29.8364 -93.0261 82° East 119 137 3,000 -120 Descending Houston Center
11:52PM 29.8408 -92.9878 86° East 119 137 2,900 -120 Descending Houston Center
11:53PM 29.8433 -92.9469 78° East 119 137 2,800 -120 Descending Houston Center
11:54PM 29.8500 -92.9111 86° East 119 137 2,700 -180 Descending Houston Center
11:55PM 29.8525 -92.8706 82° East 119 137 2,500 -120 Descending Houston Center
11:56PM 29.8569 -92.8347 78° East 119 137 2,500  Level Houston Center
11:57PM 29.8633 -92.7989 79° East 119 137 2,500  Level Houston Center
11:58PM 29.8700 -92.7606 82° East 119 137 2,500  Level Houston Center
11:59PM 29.8744 -92.7247 75° East 119 137 2,500  Level Houston Center
12:00AM 29.8831 -92.6889 82° East 119 137 2,500  Level Houston Center
12:01AM 29.8875 -92.6531 78° East 119 137 2,600  Climbing Houston Center
12:02AM 29.8942 -92.6169 78° East 114 131 2,600  Level Houston Center